Bethune, Canada
Current Conditions -  °F | °C
As of 12:00 PM on Monday 26 Jan 2015 (Local Time) from CYQR Reporting Station
Broken Clouds Broken Clouds  
Wind Chill: 29°   Ceiling: 11000
Heat Index: 36°   Visibility: 15mi
Dew Point: 32°   Wind: 8mph
Humidity: 87%   Direction: 190°S
Pressure: 29.92"   Gusts: NA
Location:  50.7°N, 105.22°W
Report Text: CYQR 261800Z 19007KT 15SM BKN110 BKN210 02/M00 A2992 RMK AC5CI2 SLP158
Loading
Personal Weather Stations






























Interactive Weather Map New forecast layout! Learn more

10-Day Weather Forecast

Advertisements
Track Severe Weather on mobile